sensor_id;sensor_type;location;lat;lon;timestamp;pressure;altitude;pressure_sealevel;temperature;humidity
13661;BME280;6903;49.480;11.102;2022-07-12T00:01:34;98563.72;;;14.10;100.00
13661;BME280;6903;49.480;11.102;2022-07-12T00:03:59;98565.50;;;14.09;100.00
13661;BME280;6903;49.480;11.102;2022-07-12T00:06:25;98565.31;;;14.01;100.00
13661;BME280;6903;49.480;11.102;2022-07-12T00:08:50;98566.56;;;13.97;100.00
13661;BME280;6903;49.480;11.102;2022-07-12T00:11:15;98562.34;;;13.95;100.00
13661;BME280;6903;49.480;11.102;2022-07-12T00:13:40;98564.28;;;13.93;100.00
13661;BME280;6903;49.480;11.102;2022-07-12T00:16:06;98560.66;;;13.94;100.00
13661;BME280;6903;49.480;11.102;2022-07-12T00:18:32;98566.88;;;14.04;100.00
13661;BME280;6903;49.480;11.102;2022-07-12T00:20:57;98560.59;;;14.05;100.00
13661;BME280;6903;49.480;11.102;2022-07-12T00:23:23;98557.22;;;14.03;100.00
13661;BME280;6903;49.480;11.102;2022-07-12T00:25:48;98566.03;;;14.03;100.00
13661;BME280;6903;49.480;11.102;2022-07-12T00:28:13;98554.56;;;14.03;100.00
13661;BME280;6903;49.480;11.102;2022-07-12T00:30:39;98554.47;;;14.04;100.00
13661;BME280;6903;49.480;11.102;2022-07-12T00:33:04;98561.59;;;14.04;100.00
13661;BME280;6903;49.480;11.102;2022-07-12T00:35:29;98558.22;;;14.02;100.00
13661;BME280;6903;49.480;11.102;2022-07-12T00:37:55;98549.47;;;13.90;100.00
13661;BME280;6903;49.480;11.102;2022-07-12T00:40:20;98559.38;;;13.88;100.00
13661;BME280;6903;49.480;11.102;2022-07-12T00:42:47;98546.28;;;13.76;100.00
13661;BME280;6903;49.480;11.102;2022-07-12T00:45:12;98550.16;;;13.72;100.00
13661;BME280;6903;49.480;11.102;2022-07-12T00:47:40;98549.84;;;13.65;100.00
13661;BME280;6903;49.480;11.102;2022-07-12T00:50:09;98555.78;;;13.58;100.00
13661;BME280;6903;49.480;11.102;2022-07-12T00:52:36;98551.41;;;13.57;100.00
13661;BME280;6903;49.480;11.102;2022-07-12T00:55:03;98559.16;;;13.49;100.00
13661;BME280;6903;49.480;11.102;2022-07-12T00:57:28;98553.25;;;13.45;100.00
13661;BME280;6903;49.480;11.102;2022-07-12T00:59:54;98560.38;;;13.45;100.00
13661;BME280;6903;49.480;11.102;2022-07-12T01:02:19;98561.59;;;13.41;100.00
13661;BME280;6903;49.480;11.102;2022-07-12T01:04:45;98553.88;;;13.38;100.00
13661;BME280;6903;49.480;11.102;2022-07-12T01:07:11;98562.22;;;13.33;100.00
13661;BME280;6903;49.480;11.102;2022-07-12T01:09:37;98557.72;;;13.34;100.00
13661;BME280;6903;49.480;11.102;2022-07-12T01:12:04;98571.84;;;13.34;100.00
13661;BME280;6903;49.480;11.102;2022-07-12T01:14:30;98560.63;;;13.31;100.00
13661;BME280;6903;49.480;11.102;2022-07-12T01:16:56;98560.16;;;13.26;100.00
13661;BME280;6903;49.480;11.102;2022-07-12T01:19:23;98564.75;;;13.24;100.00
13661;BME280;6903;49.480;11.102;2022-07-12T01:21:49;98562.38;;;13.21;100.00
13661;BME280;6903;49.480;11.102;2022-07-12T01:24:18;98566.34;;;13.15;100.00
13661;BME280;6903;49.480;11.102;2022-07-12T01:26:43;98563.81;;;13.14;100.00
13661;BME280;6903;49.480;11.102;2022-07-12T01:29:09;98562.34;;;13.10;100.00
13661;BME280;6903;49.480;11.102;2022-07-12T01:31:35;98559.72;;;13.10;100.00
13661;BME280;6903;49.480;11.102;2022-07-12T01:34:02;98566.34;;;13.15;100.00
13661;BME280;6903;49.480;11.102;2022-07-12T01:36:28;98565.97;;;13.09;100.00
13661;BME280;6903;49.480;11.102;2022-07-12T01:38:53;98560.47;;;13.01;100.00
13661;BME280;6903;49.480;11.102;2022-07-12T01:41:19;98558.03;;;12.98;100.00
13661;BME280;6903;49.480;11.102;2022-07-12T01:43:44;98555.03;;;13.02;100.00
13661;BME280;6903;49.480;11.102;2022-07-12T01:46:10;98557.56;;;13.04;100.00
13661;BME280;6903;49.480;11.102;2022-07-12T01:48:35;98555.66;;;13.06;100.00
13661;BME280;6903;49.480;11.102;2022-07-12T01:51:00;98550.34;;;13.06;100.00
13661;BME280;6903;49.480;11.102;2022-07-12T01:53:26;98561.06;;;13.04;100.00
13661;BME280;6903;49.480;11.102;2022-07-12T01:55:52;98556.72;;;13.03;100.00
13661;BME280;6903;49.480;11.102;2022-07-12T01:58:17;98560.22;;;13.04;100.00
13661;BME280;6903;49.480;11.102;2022-07-12T02:00:42;98563.09;;;13.01;100.00
13661;BME280;6903;49.480;11.102;2022-07-12T02:03:16;98561.41;;;13.00;100.00
13661;BME280;6903;49.480;11.102;2022-07-12T02:05:41;98574.53;;;13.01;100.00
13661;BME280;6903;49.480;11.102;2022-07-12T02:08:07;98568.63;;;12.98;100.00
13661;BME280;6903;49.480;11.102;2022-07-12T02:10:32;98555.50;;;12.96;100.00
13661;BME280;6903;49.480;11.102;2022-07-12T02:12:57;98561.66;;;12.97;100.00
13661;BME280;6903;49.480;11.102;2022-07-12T02:15:24;98561.41;;;12.89;100.00
13661;BME280;6903;49.480;11.102;2022-07-12T02:17:49;98566.72;;;12.89;100.00
13661;BME280;6903;49.480;11.102;2022-07-12T02:20:15;98567.91;;;12.84;100.00
13661;BME280;6903;49.480;11.102;2022-07-12T02:22:40;98562.09;;;12.91;100.00
13661;BME280;6903;49.480;11.102;2022-07-12T02:25:05;98560.69;;;12.87;100.00
13661;BME280;6903;49.480;11.102;2022-07-12T02:27:31;98566.91;;;12.85;100.00
13661;BME280;6903;49.480;11.102;2022-07-12T02:29:56;98571.53;;;12.83;100.00
13661;BME280;6903;49.480;11.102;2022-07-12T02:32:21;98573.31;;;12.83;100.00
13661;BME280;6903;49.480;11.102;2022-07-12T02:34:47;98574.03;;;12.85;100.00
13661;BME280;6903;49.480;11.102;2022-07-12T02:37:13;98564.75;;;12.79;100.00
13661;BME280;6903;49.480;11.102;2022-07-12T02:39:39;98564.75;;;12.79;100.00
13661;BME280;6903;49.480;11.102;2022-07-12T02:42:04;98570.19;;;12.78;100.00
13661;BME280;6903;49.480;11.102;2022-07-12T02:44:30;98574.03;;;12.74;100.00
13661;BME280;6903;49.480;11.102;2022-07-12T02:46:55;98570.56;;;12.73;100.00
13661;BME280;6903;49.480;11.102;2022-07-12T02:49:20;98571.63;;;12.71;100.00
13661;BME280;6903;49.480;11.102;2022-07-12T02:51:46;98562.13;;;12.68;100.00
13661;BME280;6903;49.480;11.102;2022-07-12T02:54:11;98563.81;;;12.69;100.00
13661;BME280;6903;49.480;11.102;2022-07-12T02:56:36;98560.22;;;12.70;100.00
13661;BME280;6903;49.480;11.102;2022-07-12T02:59:02;98567.28;;;12.70;100.00
13661;BME280;6903;49.480;11.102;2022-07-12T03:01:27;98568.16;;;12.70;100.00
13661;BME280;6903;49.480;11.102;2022-07-12T03:03:52;98578.97;;;12.67;100.00
13661;BME280;6903;49.480;11.102;2022-07-12T03:06:18;98571.16;;;12.66;100.00
13661;BME280;6903;49.480;11.102;2022-07-12T03:08:43;98568.72;;;12.63;100.00
13661;BME280;6903;49.480;11.102;2022-07-12T03:11:08;98573.91;;;12.64;100.00
13661;BME280;6903;49.480;11.102;2022-07-12T03:13:34;98571.84;;;12.68;100.00
13661;BME280;6903;49.480;11.102;2022-07-12T03:15:59;98566.69;;;12.66;100.00
13661;BME280;6903;49.480;11.102;2022-07-12T03:18:24;98567.41;;;12.68;100.00
13661;BME280;6903;49.480;11.102;2022-07-12T03:20:50;98571.16;;;12.66;100.00
13661;BME280;6903;49.480;11.102;2022-07-12T03:23:15;98580.78;;;12.67;100.00
13661;BME280;6903;49.480;11.102;2022-07-12T03:25:41;98584.16;;;12.69;100.00
13661;BME280;6903;49.480;11.102;2022-07-12T03:28:06;98588.47;;;12.70;100.00
13661;BME280;6903;49.480;11.102;2022-07-12T03:30:31;98589.44;;;12.69;100.00
13661;BME280;6903;49.480;11.102;2022-07-12T03:32:57;98589.44;;;12.80;100.00
13661;BME280;6903;49.480;11.102;2022-07-12T03:35:22;98587.75;;;12.90;100.00
13661;BME280;6903;49.480;11.102;2022-07-12T03:37:52;98588.94;;;12.97;100.00
13661;BME280;6903;49.480;11.102;2022-07-12T03:40:19;98593.41;;;12.97;100.00
13661;BME280;6903;49.480;11.102;2022-07-12T03:42:45;98592.97;;;13.03;100.00
13661;BME280;6903;49.480;11.102;2022-07-12T03:45:11;98588.84;;;13.10;100.00
13661;BME280;6903;49.480;11.102;2022-07-12T03:47:37;98592.69;;;13.17;100.00
13661;BME280;6903;49.480;11.102;2022-07-12T03:50:04;98590.28;;;13.25;100.00
13661;BME280;6903;49.480;11.102;2022-07-12T03:52:30;98590.78;;;13.19;100.00
13661;BME280;6903;49.480;11.102;2022-07-12T03:54:56;98591.00;;;13.27;100.00
13661;BME280;6903;49.480;11.102;2022-07-12T03:57:22;98593.22;;;13.53;100.00
13661;BME280;6903;49.480;11.102;2022-07-12T03:59:47;98597.00;;;14.03;100.00
13661;BME280;6903;49.480;11.102;2022-07-12T04:02:12;98614.41;;;14.48;100.00
13661;BME280;6903;49.480;11.102;2022-07-12T04:04:38;98613.56;;;14.98;100.00
13661;BME280;6903;49.480;11.102;2022-07-12T04:07:04;98608.50;;;15.55;100.00
13661;BME280;6903;49.480;11.102;2022-07-12T04:09:30;98615.13;;;15.99;100.00
13661;BME280;6903;49.480;11.102;2022-07-12T04:11:55;98609.50;;;16.40;100.00
13661;BME280;6903;49.480;11.102;2022-07-12T04:14:21;98605.66;;;16.81;100.00
13661;BME280;6903;49.480;11.102;2022-07-12T04:16:46;98603.13;;;17.16;100.00
13661;BME280;6903;49.480;11.102;2022-07-12T04:19:12;98613.28;;;17.67;100.00
13661;BME280;6903;49.480;11.102;2022-07-12T04:21:37;98601.34;;;18.06;100.00
13661;BME280;6903;49.480;11.102;2022-07-12T04:24:04;98604.00;;;18.23;100.00
13661;BME280;6903;49.480;11.102;2022-07-12T04:26:29;98610.28;;;18.75;100.00
13661;BME280;6903;49.480;11.102;2022-07-12T04:28:55;98621.78;;;19.27;100.00
13661;BME280;6903;49.480;11.102;2022-07-12T04:31:20;98617.09;;;19.62;100.00
13661;BME280;6903;49.480;11.102;2022-07-12T04:33:45;98620.03;;;19.93;100.00
13661;BME280;6903;49.480;11.102;2022-07-12T04:36:11;98611.09;;;20.26;100.00
13661;BME280;6903;49.480;11.102;2022-07-12T04:38:36;98616.75;;;20.47;100.00
13661;BME280;6903;49.480;11.102;2022-07-12T04:41:01;98616.09;;;20.77;100.00
13661;BME280;6903;49.480;11.102;2022-07-12T04:43:27;98629.00;;;20.58;100.00
13661;BME280;6903;49.480;11.102;2022-07-12T04:45:52;98615.91;;;20.87;100.00
13661;BME280;6903;49.480;11.102;2022-07-12T04:48:17;98617.03;;;21.25;100.00
13661;BME280;6903;49.480;11.102;2022-07-12T04:50:43;98616.81;;;21.34;100.00
13661;BME280;6903;49.480;11.102;2022-07-12T04:53:09;98629.84;;;21.53;100.00
13661;BME280;6903;49.480;11.102;2022-07-12T04:55:34;98626.19;;;21.85;100.00
13661;BME280;6903;49.480;11.102;2022-07-12T04:58:00;98622.50;;;21.86;100.00
13661;BME280;6903;49.480;11.102;2022-07-12T05:00:25;98621.06;;;21.98;100.00
13661;BME280;6903;49.480;11.102;2022-07-12T05:02:50;98628.78;;;22.23;100.00
13661;BME280;6903;49.480;11.102;2022-07-12T05:05:15;98627.91;;;22.54;100.00
13661;BME280;6903;49.480;11.102;2022-07-12T05:07:41;98633.81;;;22.72;100.00
13661;BME280;6903;49.480;11.102;2022-07-12T05:10:07;98632.47;;;22.90;100.00
13661;BME280;6903;49.480;11.102;2022-07-12T05:12:34;98634.72;;;23.16;100.00
13661;BME280;6903;49.480;11.102;2022-07-12T05:14:59;98636.78;;;23.57;100.00
13661;BME280;6903;49.480;11.102;2022-07-12T05:17:25;98639.66;;;23.85;100.00
13661;BME280;6903;49.480;11.102;2022-07-12T05:19:50;98644.19;;;23.99;100.00
13661;BME280;6903;49.480;11.102;2022-07-12T05:22:15;98648.34;;;24.16;100.00
13661;BME280;6903;49.480;11.102;2022-07-12T05:24:41;98643.19;;;24.42;100.00
13661;BME280;6903;49.480;11.102;2022-07-12T05:27:06;98644.25;;;24.62;100.00
13661;BME280;6903;49.480;11.102;2022-07-12T05:29:31;98643.41;;;24.83;100.00
13661;BME280;6903;49.480;11.102;2022-07-12T05:31:57;98651.22;;;24.99;100.00
13661;BME280;6903;49.480;11.102;2022-07-12T05:34:23;98650.28;;;25.13;100.00
13661;BME280;6903;49.480;11.102;2022-07-12T05:36:48;98645.22;;;25.03;100.00
13661;BME280;6903;49.480;11.102;2022-07-12T05:39:14;98645.19;;;25.25;100.00
13661;BME280;6903;49.480;11.102;2022-07-12T05:41:39;98640.78;;;25.45;99.23
13661;BME280;6903;49.480;11.102;2022-07-12T05:44:04;98643.03;;;25.75;96.92
13661;BME280;6903;49.480;11.102;2022-07-12T05:46:30;98642.75;;;26.04;94.18
13661;BME280;6903;49.480;11.102;2022-07-12T05:48:55;98646.16;;;26.32;91.13
13661;BME280;6903;49.480;11.102;2022-07-12T05:51:21;98648.69;;;26.47;89.56
13661;BME280;6903;49.480;11.102;2022-07-12T05:54:05;98645.19;;;26.86;86.85
13661;BME280;6903;49.480;11.102;2022-07-12T05:56:30;98652.91;;;27.28;83.70
13661;BME280;6903;49.480;11.102;2022-07-12T05:58:55;98650.81;;;27.49;81.07
13661;BME280;6903;49.480;11.102;2022-07-12T06:01:21;98653.47;;;27.69;78.71
13661;BME280;6903;49.480;11.102;2022-07-12T06:03:46;98656.78;;;27.71;77.06
13661;BME280;6903;49.480;11.102;2022-07-12T06:06:12;98655.25;;;28.01;75.19
13661;BME280;6903;49.480;11.102;2022-07-12T06:08:37;98649.78;;;28.45;71.43
13661;BME280;6903;49.480;11.102;2022-07-12T06:11:02;98656.28;;;28.44;70.16
13661;BME280;6903;49.480;11.102;2022-07-12T06:13:28;98660.41;;;28.53;68.99
13661;BME280;6903;49.480;11.102;2022-07-12T06:15:54;98663.41;;;28.76;67.94
13661;BME280;6903;49.480;11.102;2022-07-12T06:18:21;98666.22;;;28.88;65.89
13661;BME280;6903;49.480;11.102;2022-07-12T06:20:46;98662.28;;;29.15;64.70
13661;BME280;6903;49.480;11.102;2022-07-12T06:23:12;98660.41;;;29.16;63.92
13661;BME280;6903;49.480;11.102;2022-07-12T06:25:38;98657.88;;;28.89;64.54
13661;BME280;6903;49.480;11.102;2022-07-12T06:28:04;98656.97;;;29.63;62.16
13661;BME280;6903;49.480;11.102;2022-07-12T06:30:30;98664.72;;;30.02;59.95
13661;BME280;6903;49.480;11.102;2022-07-12T06:32:55;98664.78;;;30.13;58.96
13661;BME280;6903;49.480;11.102;2022-07-12T06:35:20;98659.97;;;29.97;58.52
13661;BME280;6903;49.480;11.102;2022-07-12T06:37:46;98665.75;;;30.37;56.79
13661;BME280;6903;49.480;11.102;2022-07-12T06:40:11;98671.78;;;30.69;54.91
13661;BME280;6903;49.480;11.102;2022-07-12T06:42:37;98675.47;;;31.27;53.40
13661;BME280;6903;49.480;11.102;2022-07-12T06:45:03;98671.19;;;31.77;51.28
13661;BME280;6903;49.480;11.102;2022-07-12T06:47:29;98679.41;;;31.89;49.85
13661;BME280;6903;49.480;11.102;2022-07-12T06:49:54;98679.53;;;31.94;48.92
13661;BME280;6903;49.480;11.102;2022-07-12T06:52:19;98689.56;;;32.05;48.60
13661;BME280;6903;49.480;11.102;2022-07-12T06:54:45;98688.81;;;32.21;47.71
13661;BME280;6903;49.480;11.102;2022-07-12T06:57:10;98679.25;;;32.46;47.41
13661;BME280;6903;49.480;11.102;2022-07-12T06:59:36;98688.28;;;32.47;46.63
13661;BME280;6903;49.480;11.102;2022-07-12T07:02:01;98686.53;;;32.29;46.92
13661;BME280;6903;49.480;11.102;2022-07-12T07:04:27;98686.56;;;32.18;46.96
13661;BME280;6903;49.480;11.102;2022-07-12T07:06:52;98691.22;;;32.73;45.19
13661;BME280;6903;49.480;11.102;2022-07-12T07:09:18;98687.59;;;32.68;45.04
13661;BME280;6903;49.480;11.102;2022-07-12T07:11:44;98676.19;;;32.99;44.70
13661;BME280;6903;49.480;11.102;2022-07-12T07:14:09;98681.63;;;33.16;43.85
13661;BME280;6903;49.480;11.102;2022-07-12T07:16:35;98689.28;;;32.41;44.25
13661;BME280;6903;49.480;11.102;2022-07-12T07:19:00;98689.19;;;30.97;47.34
13661;BME280;6903;49.480;11.102;2022-07-12T07:21:27;98685.78;;;31.13;48.15
13661;BME280;6903;49.480;11.102;2022-07-12T07:23:52;98682.22;;;30.06;48.43
13661;BME280;6903;49.480;11.102;2022-07-12T07:26:18;98683.69;;;30.26;49.46
13661;BME280;6903;49.480;11.102;2022-07-12T07:28:43;98675.78;;;30.96;48.34
13661;BME280;6903;49.480;11.102;2022-07-12T07:31:28;98681.16;;;31.25;48.27
13661;BME280;6903;49.480;11.102;2022-07-12T07:33:53;98689.16;;;31.85;47.03
13661;BME280;6903;49.480;11.102;2022-07-12T07:36:19;98680.34;;;32.34;45.79
13661;BME280;6903;49.480;11.102;2022-07-12T07:38:44;98683.53;;;32.54;45.29
13661;BME280;6903;49.480;11.102;2022-07-12T07:41:09;98685.34;;;32.93;44.15
13661;BME280;6903;49.480;11.102;2022-07-12T07:43:35;98697.06;;;33.22;42.95
13661;BME280;6903;49.480;11.102;2022-07-12T07:46:00;98684.44;;;33.37;42.36
13661;BME280;6903;49.480;11.102;2022-07-12T07:48:27;98699.38;;;33.63;41.73
13661;BME280;6903;49.480;11.102;2022-07-12T07:50:52;98701.16;;;33.90;41.02
13661;BME280;6903;49.480;11.102;2022-07-12T07:53:17;98700.66;;;33.93;40.14
13661;BME280;6903;49.480;11.102;2022-07-12T07:55:43;98698.50;;;33.79;40.22
13661;BME280;6903;49.480;11.102;2022-07-12T07:58:08;98709.38;;;32.91;41.19
13661;BME280;6903;49.480;11.102;2022-07-12T08:00:33;98702.13;;;32.06;42.49
13661;BME280;6903;49.480;11.102;2022-07-12T08:02:59;98700.63;;;31.87;42.72
13661;BME280;6903;49.480;11.102;2022-07-12T08:05:24;98703.69;;;31.78;43.63
13661;BME280;6903;49.480;11.102;2022-07-12T08:07:50;98703.59;;;31.85;42.87
13661;BME280;6903;49.480;11.102;2022-07-12T08:10:15;98706.09;;;31.40;43.16
13661;BME280;6903;49.480;11.102;2022-07-12T08:12:41;98700.66;;;30.70;44.54
13661;BME280;6903;49.480;11.102;2022-07-12T08:15:07;98697.03;;;31.17;44.18
13661;BME280;6903;49.480;11.102;2022-07-12T08:17:32;98707.88;;;31.81;42.70
13661;BME280;6903;49.480;11.102;2022-07-12T08:19:58;98697.06;;;31.74;42.91
13661;BME280;6903;49.480;11.102;2022-07-12T08:22:23;98700.16;;;31.66;42.43
13661;BME280;6903;49.480;11.102;2022-07-12T08:24:49;98699.09;;;31.33;42.64
13661;BME280;6903;49.480;11.102;2022-07-12T08:27:15;98700.69;;;30.99;43.50
13661;BME280;6903;49.480;11.102;2022-07-12T08:29:40;98683.97;;;30.96;43.39
13661;BME280;6903;49.480;11.102;2022-07-12T08:32:06;98688.13;;;30.39;44.16
13661;BME280;6903;49.480;11.102;2022-07-12T08:34:33;98683.22;;;29.75;45.38
13661;BME280;6903;49.480;11.102;2022-07-12T08:36:58;98670.47;;;29.94;45.10
13661;BME280;6903;49.480;11.102;2022-07-12T08:39:23;98682.16;;;30.12;45.19
13661;BME280;6903;49.480;11.102;2022-07-12T08:41:49;98675.91;;;30.30;45.13
13661;BME280;6903;49.480;11.102;2022-07-12T08:44:14;98675.44;;;29.97;45.81
13661;BME280;6903;49.480;11.102;2022-07-12T08:46:39;98674.19;;;30.47;44.30
13661;BME280;6903;49.480;11.102;2022-07-12T08:49:06;98675.22;;;30.76;44.04
13661;BME280;6903;49.480;11.102;2022-07-12T08:51:32;98685.13;;;30.88;42.82
13661;BME280;6903;49.480;11.102;2022-07-12T08:54:11;98685.59;;;30.67;42.71
13661;BME280;6903;49.480;11.102;2022-07-12T08:56:41;98681.09;;;30.13;43.41
13661;BME280;6903;49.480;11.102;2022-07-12T08:59:20;98678.47;;;30.25;43.24
13661;BME280;6903;49.480;11.102;2022-07-12T09:01:50;98680.56;;;29.87;43.14
13661;BME280;6903;49.480;11.102;2022-07-12T09:04:26;98677.72;;;29.82;43.98
13661;BME280;6903;49.480;11.102;2022-07-12T09:06:55;98675.97;;;29.87;43.88
13661;BME280;6903;49.480;11.102;2022-07-12T09:09:34;98690.47;;;30.65;42.38
13661;BME280;6903;49.480;11.102;2022-07-12T09:12:02;98686.94;;;31.17;41.22
13661;BME280;6903;49.480;11.102;2022-07-12T09:14:28;98694.31;;;31.17;40.77
13661;BME280;6903;49.480;11.102;2022-07-12T09:17:04;98690.25;;;30.67;40.96
13661;BME280;6903;49.480;11.102;2022-07-12T09:19:34;98695.09;;;30.17;42.10
13661;BME280;6903;49.480;11.102;2022-07-12T09:22:00;98690.50;;;29.99;42.10
13661;BME280;6903;49.480;11.102;2022-07-12T09:24:27;98676.91;;;29.99;41.65
13661;BME280;6903;49.480;11.102;2022-07-12T09:26:56;98681.19;;;29.28;41.19
13661;BME280;6903;49.480;11.102;2022-07-12T09:29:22;98683.38;;;30.16;40.83
13661;BME280;6903;49.480;11.102;2022-07-12T09:31:49;98685.41;;;30.39;40.86
13661;BME280;6903;49.480;11.102;2022-07-12T09:34:34;98684.22;;;29.81;42.25
13661;BME280;6903;49.480;11.102;2022-07-12T09:37:18;98696.19;;;28.75;44.31
13661;BME280;6903;49.480;11.102;2022-07-12T09:39:44;98694.03;;;28.52;45.08
13661;BME280;6903;49.480;11.102;2022-07-12T09:42:10;98690.53;;;28.39;45.99
13661;BME280;6903;49.480;11.102;2022-07-12T09:44:37;98684.75;;;28.97;44.79
13661;BME280;6903;49.480;11.102;2022-07-12T09:47:03;98679.66;;;29.32;44.29
13661;BME280;6903;49.480;11.102;2022-07-12T09:49:29;98682.72;;;29.85;42.45
13661;BME280;6903;49.480;11.102;2022-07-12T09:51:58;98685.13;;;29.93;41.49
13661;BME280;6903;49.480;11.102;2022-07-12T09:54:28;98678.41;;;30.31;40.96
13661;BME280;6903;49.480;11.102;2022-07-12T09:56:58;98678.63;;;28.77;42.38
13661;BME280;6903;49.480;11.102;2022-07-12T09:59:24;98664.34;;;29.38;41.90
13661;BME280;6903;49.480;11.102;2022-07-12T10:01:53;98668.22;;;30.38;40.03
13661;BME280;6903;49.480;11.102;2022-07-12T10:04:22;98675.94;;;30.41;38.45
13661;BME280;6903;49.480;11.102;2022-07-12T10:06:47;98675.47;;;30.74;38.23
13661;BME280;6903;49.480;11.102;2022-07-12T10:09:14;98676.88;;;30.35;37.20
13661;BME280;6903;49.480;11.102;2022-07-12T10:11:41;98680.16;;;29.23;38.94
13661;BME280;6903;49.480;11.102;2022-07-12T10:14:10;98683.94;;;29.22;41.86
13661;BME280;6903;49.480;11.102;2022-07-12T10:16:36;98684.00;;;30.00;40.55
13661;BME280;6903;49.480;11.102;2022-07-12T10:19:22;98684.09;;;30.41;39.91
13661;BME280;6903;49.480;11.102;2022-07-12T10:21:49;98680.28;;;30.31;40.18
13661;BME280;6903;49.480;11.102;2022-07-12T10:26:57;98681.66;;;30.22;39.78
13661;BME280;6903;49.480;11.102;2022-07-12T10:29:22;98676.19;;;29.68;40.14
13661;BME280;6903;49.480;11.102;2022-07-12T10:31:48;98670.84;;;29.97;39.85
13661;BME280;6903;49.480;11.102;2022-07-12T10:34:22;98672.22;;;30.54;38.90
13661;BME280;6903;49.480;11.102;2022-07-12T10:39:23;98650.28;;;31.31;37.53
13661;BME280;6903;49.480;11.102;2022-07-12T10:44:48;98660.38;;;30.12;37.79
13661;BME280;6903;49.480;11.102;2022-07-12T10:47:15;98660.41;;;31.13;37.18
13661;BME280;6903;49.480;11.102;2022-07-12T10:49:50;98656.97;;;31.75;36.11
13661;BME280;6903;49.480;11.102;2022-07-12T10:52:24;98661.25;;;31.59;35.81
13661;BME280;6903;49.480;11.102;2022-07-12T10:57:16;98654.47;;;31.16;36.49
13661;BME280;6903;49.480;11.102;2022-07-12T10:59:45;98660.28;;;30.67;36.77
13661;BME280;6903;49.480;11.102;2022-07-12T11:02:14;98664.06;;;31.07;36.05
13661;BME280;6903;49.480;11.102;2022-07-12T11:04:46;98658.75;;;31.12;35.29
13661;BME280;6903;49.480;11.102;2022-07-12T11:07:17;98660.38;;;30.90;35.10
13661;BME280;6903;49.480;11.102;2022-07-12T11:09:42;98652.59;;;30.75;35.27
13661;BME280;6903;49.480;11.102;2022-07-12T11:12:07;98659.44;;;31.19;34.66
13661;BME280;6903;49.480;11.102;2022-07-12T11:14:33;98652.00;;;30.62;35.27
13661;BME280;6903;49.480;11.102;2022-07-12T11:17:00;98645.69;;;29.66;36.61
13661;BME280;6903;49.480;11.102;2022-07-12T11:19:27;98647.31;;;30.21;37.50
13661;BME280;6903;49.480;11.102;2022-07-12T11:21:54;98642.28;;;30.54;37.25
13661;BME280;6903;49.480;11.102;2022-07-12T11:24:28;98634.34;;;30.64;37.64
13661;BME280;6903;49.480;11.102;2022-07-12T11:26:54;98642.19;;;31.48;36.39
13661;BME280;6903;49.480;11.102;2022-07-12T11:29:21;98644.25;;;32.04;35.32
13661;BME280;6903;49.480;11.102;2022-07-12T11:31:47;98647.38;;;32.24;34.71
13661;BME280;6903;49.480;11.102;2022-07-12T11:34:20;98656.50;;;32.29;34.76
13661;BME280;6903;49.480;11.102;2022-07-12T11:36:46;98645.28;;;32.54;33.86
13661;BME280;6903;49.480;11.102;2022-07-12T11:39:12;98646.56;;;32.23;33.79
13661;BME280;6903;49.480;11.102;2022-07-12T11:41:37;98649.66;;;32.55;33.47
13661;BME280;6903;49.480;11.102;2022-07-12T11:44:03;98646.97;;;32.15;33.80
13661;BME280;6903;49.480;11.102;2022-07-12T11:46:28;98640.78;;;31.45;33.66
13661;BME280;6903;49.480;11.102;2022-07-12T11:48:54;98638.88;;;31.46;35.06
13661;BME280;6903;49.480;11.102;2022-07-12T11:51:19;98640.72;;;32.31;33.84
13661;BME280;6903;49.480;11.102;2022-07-12T11:53:51;98634.00;;;33.45;33.87
13661;BME280;6903;49.480;11.102;2022-07-12T11:56:29;98629.19;;;33.35;32.14
13661;BME280;6903;49.480;11.102;2022-07-12T11:58:55;98643.19;;;32.44;32.38
13661;BME280;6903;49.480;11.102;2022-07-12T12:01:21;98637.28;;;31.27;33.68
13661;BME280;6903;49.480;11.102;2022-07-12T12:03:47;98633.91;;;31.31;33.83
13661;BME280;6903;49.480;11.102;2022-07-12T12:06:13;98641.13;;;31.60;34.30
13661;BME280;6903;49.480;11.102;2022-07-12T12:08:39;98635.13;;;31.98;33.75
13661;BME280;6903;49.480;11.102;2022-07-12T12:11:04;98644.25;;;32.32;33.10
13661;BME280;6903;49.480;11.102;2022-07-12T12:13:29;98640.88;;;32.25;33.02
13661;BME280;6903;49.480;11.102;2022-07-12T12:16:03;98642.88;;;31.78;33.04
13661;BME280;6903;49.480;11.102;2022-07-12T12:18:37;98637.66;;;31.30;33.75
13661;BME280;6903;49.480;11.102;2022-07-12T12:21:11;98630.91;;;31.56;33.71
13661;BME280;6903;49.480;11.102;2022-07-12T12:23:39;98636.84;;;31.64;33.11
13661;BME280;6903;49.480;11.102;2022-07-12T12:31:13;98621.13;;;32.34;31.74
13661;BME280;6903;49.480;11.102;2022-07-12T12:33:41;98605.31;;;32.64;31.51
13661;BME280;6903;49.480;11.102;2022-07-12T12:36:12;98600.78;;;32.70;32.19
13661;BME280;6903;49.480;11.102;2022-07-12T12:38:38;98609.25;;;33.01;31.50
13661;BME280;6903;49.480;11.102;2022-07-12T12:41:04;98606.38;;;32.80;31.97
13661;BME280;6903;49.480;11.102;2022-07-12T12:43:30;98609.06;;;32.91;31.37
13661;BME280;6903;49.480;11.102;2022-07-12T12:45:57;98610.75;;;32.92;31.50
13661;BME280;6903;49.480;11.102;2022-07-12T12:48:24;98615.75;;;33.34;31.81
13661;BME280;6903;49.480;11.102;2022-07-12T12:50:52;98609.94;;;33.30;31.62
13661;BME280;6903;49.480;11.102;2022-07-12T12:55:48;98602.53;;;33.42;31.14
13661;BME280;6903;49.480;11.102;2022-07-12T12:58:15;98605.91;;;32.83;30.93
13661;BME280;6903;49.480;11.102;2022-07-12T13:00:43;98606.56;;;32.01;31.97
13661;BME280;6903;49.480;11.102;2022-07-12T13:03:10;98599.91;;;32.25;31.96
13661;BME280;6903;49.480;11.102;2022-07-12T13:05:36;98602.22;;;32.44;31.99
13661;BME280;6903;49.480;11.102;2022-07-12T13:08:03;98608.50;;;32.17;32.36
13661;BME280;6903;49.480;11.102;2022-07-12T13:10:29;98599.91;;;31.97;32.84